Terminal Aerodrome Forecast
Issued by NWS

Home | Current Version | Previous Version | Text Only | Print | Product List | Glossary On
Versions: 1 2 3 4 5 6 7 8 9 10 11 12 13 14 15 16 17 18 19 20 21 22
000
FTUS46 KSEW 280000 AAA
TAFHQM
TAF AMD
KHQM 280036Z 2801/2824 05012G22KT P6SM VCSH SCT025 BKN050
      TEMPO 2801/2803 BKN025 OVC050
     FM280300 04010G20KT P6SM OVC050
     FM280900 04007KT P6SM SKC
     FM281700 03012KT P6SM SKC=

USA.gov is the U.S. government's official web portal to all federal, state and local government web resources and services.